sensor_id;sensor_type;location;lat;lon;timestamp;P1;P2;P0
78063;PMS5003;67429;51.596;-3.264;2023-03-01T00:00:22;12;12;
78063;PMS5003;67429;51.596;-3.264;2023-03-01T00:02:48;10;10;
78063;PMS5003;67429;51.596;-3.264;2023-03-01T00:05:14;10;9;
78063;PMS5003;67429;51.596;-3.264;2023-03-01T00:07:39;9;8;
78063;PMS5003;67429;51.596;-3.264;2023-03-01T00:10:05;7;7;
78063;PMS5003;67429;51.596;-3.264;2023-03-01T00:12:31;9;8;
78063;PMS5003;67429;51.596;-3.264;2023-03-01T00:14:57;7;6;
78063;PMS5003;67429;51.596;-3.264;2023-03-01T00:17:22;7;7;
78063;PMS5003;67429;51.596;-3.264;2023-03-01T00:19:48;7;7;
78063;PMS5003;67429;51.596;-3.264;2023-03-01T00:22:14;8;8;
78063;PMS5003;67429;51.596;-3.264;2023-03-01T00:24:40;8;7;
78063;PMS5003;67429;51.596;-3.264;2023-03-01T00:27:05;8;8;
78063;PMS5003;67429;51.596;-3.264;2023-03-01T00:29:31;8;6;
78063;PMS5003;67429;51.596;-3.264;2023-03-01T00:31:57;8;8;
78063;PMS5003;67429;51.596;-3.264;2023-03-01T00:34:22;6;4;
78063;PMS5003;67429;51.596;-3.264;2023-03-01T00:36:48;12;10;
78063;PMS5003;67429;51.596;-3.264;2023-03-01T00:39:14;12;11;
78063;PMS5003;67429;51.596;-3.264;2023-03-01T00:41:40;8;8;
78063;PMS5003;67429;51.596;-3.264;2023-03-01T00:44:06;9;9;
78063;PMS5003;67429;51.596;-3.264;2023-03-01T00:46:31;12;12;
78063;PMS5003;67429;51.596;-3.264;2023-03-01T00:48:57;8;7;
78063;PMS5003;67429;51.596;-3.264;2023-03-01T00:51:24;9;9;
78063;PMS5003;67429;51.596;-3.264;2023-03-01T00:53:50;11;11;
78063;PMS5003;67429;51.596;-3.264;2023-03-01T00:56:14;11;11;
78063;PMS5003;67429;51.596;-3.264;2023-03-01T00:58:40;11;11;
78063;PMS5003;67429;51.596;-3.264;2023-03-01T01:01:09;13;13;
78063;PMS5003;67429;51.596;-3.264;2023-03-01T01:03:30;12;10;
78063;PMS5003;67429;51.596;-3.264;2023-03-01T01:05:56;10;9;
78063;PMS5003;67429;51.596;-3.264;2023-03-01T01:08:22;13;11;
78063;PMS5003;67429;51.596;-3.264;2023-03-01T01:10:47;11;11;
78063;PMS5003;67429;51.596;-3.264;2023-03-01T01:13:13;9;9;
78063;PMS5003;67429;51.596;-3.264;2023-03-01T01:15:39;9;7;
78063;PMS5003;67429;51.596;-3.264;2023-03-01T01:18:05;8;8;
78063;PMS5003;67429;51.596;-3.264;2023-03-01T01:20:31;11;8;
78063;PMS5003;67429;51.596;-3.264;2023-03-01T01:22:56;13;11;
78063;PMS5003;67429;51.596;-3.264;2023-03-01T01:25:22;12;12;
78063;PMS5003;67429;51.596;-3.264;2023-03-01T01:27:48;11;9;
78063;PMS5003;67429;51.596;-3.264;2023-03-01T01:30:13;12;12;
78063;PMS5003;67429;51.596;-3.264;2023-03-01T01:32:39;13;11;
78063;PMS5003;67429;51.596;-3.264;2023-03-01T01:35:05;11;11;
78063;PMS5003;67429;51.596;-3.264;2023-03-01T01:37:30;15;13;
78063;PMS5003;67429;51.596;-3.264;2023-03-01T01:39:56;9;8;
78063;PMS5003;67429;51.596;-3.264;2023-03-01T01:42:22;11;11;
78063;PMS5003;67429;51.596;-3.264;2023-03-01T01:44:47;11;11;
78063;PMS5003;67429;51.596;-3.264;2023-03-01T01:47:14;11;9;
78063;PMS5003;67429;51.596;-3.264;2023-03-01T01:49:40;11;11;
78063;PMS5003;67429;51.596;-3.264;2023-03-01T01:52:07;17;13;
78063;PMS5003;67429;51.596;-3.264;2023-03-01T01:54:32;13;12;
78063;PMS5003;67429;51.596;-3.264;2023-03-01T01:56:56;14;13;
78063;PMS5003;67429;51.596;-3.264;2023-03-01T01:59:21;17;15;
78063;PMS5003;67429;51.596;-3.264;2023-03-01T02:01:47;13;13;
78063;PMS5003;67429;51.596;-3.264;2023-03-01T02:04:12;11;11;
78063;PMS5003;67429;51.596;-3.264;2023-03-01T02:06:39;12;11;
78063;PMS5003;67429;51.596;-3.264;2023-03-01T02:09:06;11;9;
78063;PMS5003;67429;51.596;-3.264;2023-03-01T02:11:29;11;11;
78063;PMS5003;67429;51.596;-3.264;2023-03-01T02:13:55;13;12;
78063;PMS5003;67429;51.596;-3.264;2023-03-01T02:16:20;12;11;
78063;PMS5003;67429;51.596;-3.264;2023-03-01T02:18:47;8;8;
78063;PMS5003;67429;51.596;-3.264;2023-03-01T02:21:15;8;7;
78063;PMS5003;67429;51.596;-3.264;2023-03-01T02:23:38;7;7;
78063;PMS5003;67429;51.596;-3.264;2023-03-01T02:26:05;6;6;
78063;PMS5003;67429;51.596;-3.264;2023-03-01T02:28:30;7;6;
78063;PMS5003;67429;51.596;-3.264;2023-03-01T02:30:55;4;4;
78063;PMS5003;67429;51.596;-3.264;2023-03-01T02:33:21;8;7;
78063;PMS5003;67429;51.596;-3.264;2023-03-01T02:35:47;3;3;
78063;PMS5003;67429;51.596;-3.264;2023-03-01T02:38:13;7;7;
78063;PMS5003;67429;51.596;-3.264;2023-03-01T02:40:38;3;3;
78063;PMS5003;67429;51.596;-3.264;2023-03-01T02:43:04;2;2;
78063;PMS5003;67429;51.596;-3.264;2023-03-01T02:45:30;2;2;
78063;PMS5003;67429;51.596;-3.264;2023-03-01T02:47:56;3;3;
78063;PMS5003;67429;51.596;-3.264;2023-03-01T02:50:29;3;3;
78063;PMS5003;67429;51.596;-3.264;2023-03-01T02:52:47;1;1;
78063;PMS5003;67429;51.596;-3.264;2023-03-01T02:55:14;1;1;
78063;PMS5003;67429;51.596;-3.264;2023-03-01T02:57:40;3;2;
78063;PMS5003;67429;51.596;-3.264;2023-03-01T03:00:06;2;2;
78063;PMS5003;67429;51.596;-3.264;2023-03-01T03:02:31;2;2;
78063;PMS5003;67429;51.596;-3.264;2023-03-01T03:04:56;1;1;
78063;PMS5003;67429;51.596;-3.264;2023-03-01T03:07:22;2;2;
78063;PMS5003;67429;51.596;-3.264;2023-03-01T03:09:48;2;2;
78063;PMS5003;67429;51.596;-3.264;2023-03-01T03:12:14;4;4;
78063;PMS5003;67429;51.596;-3.264;2023-03-01T03:14:39;1;1;
78063;PMS5003;67429;51.596;-3.264;2023-03-01T03:17:05;2;2;
78063;PMS5003;67429;51.596;-3.264;2023-03-01T03:19:31;2;2;
78063;PMS5003;67429;51.596;-3.264;2023-03-01T03:21:57;3;3;
78063;PMS5003;67429;51.596;-3.264;2023-03-01T03:24:23;3;2;
78063;PMS5003;67429;51.596;-3.264;2023-03-01T03:26:49;2;2;
78063;PMS5003;67429;51.596;-3.264;2023-03-01T03:29:14;3;3;
78063;PMS5003;67429;51.596;-3.264;2023-03-01T03:31:40;2;2;
78063;PMS5003;67429;51.596;-3.264;2023-03-01T03:34:06;2;2;
78063;PMS5003;67429;51.596;-3.264;2023-03-01T03:36:32;2;2;
78063;PMS5003;67429;51.596;-3.264;2023-03-01T03:38:58;2;2;
78063;PMS5003;67429;51.596;-3.264;2023-03-01T03:41:23;4;4;
78063;PMS5003;67429;51.596;-3.264;2023-03-01T03:43:49;2;2;
78063;PMS5003;67429;51.596;-3.264;2023-03-01T03:46:15;4;3;
78063;PMS5003;67429;51.596;-3.264;2023-03-01T03:48:41;2;1;
78063;PMS5003;67429;51.596;-3.264;2023-03-01T03:51:07;2;2;
78063;PMS5003;67429;51.596;-3.264;2023-03-01T03:53:32;3;3;
78063;PMS5003;67429;51.596;-3.264;2023-03-01T03:55:58;3;3;
78063;PMS5003;67429;51.596;-3.264;2023-03-01T03:58:24;2;1;
78063;PMS5003;67429;51.596;-3.264;2023-03-01T04:00:50;1;1;
78063;PMS5003;67429;51.596;-3.264;2023-03-01T04:03:16;2;2;
78063;PMS5003;67429;51.596;-3.264;2023-03-01T04:05:41;2;2;
78063;PMS5003;67429;51.596;-3.264;2023-03-01T04:08:07;5;5;
78063;PMS5003;67429;51.596;-3.264;2023-03-01T04:10:34;2;2;
78063;PMS5003;67429;51.596;-3.264;2023-03-01T04:12:58;1;1;
78063;PMS5003;67429;51.596;-3.264;2023-03-01T04:15:25;1;1;
78063;PMS5003;67429;51.596;-3.264;2023-03-01T04:17:51;1;1;
78063;PMS5003;67429;51.596;-3.264;2023-03-01T04:20:17;0;0;
78063;PMS5003;67429;51.596;-3.264;2023-03-01T04:22:42;1;1;
78063;PMS5003;67429;51.596;-3.264;2023-03-01T04:25:08;1;1;
78063;PMS5003;67429;51.596;-3.264;2023-03-01T04:27:33;1;1;
78063;PMS5003;67429;51.596;-3.264;2023-03-01T04:29:59;2;2;
78063;PMS5003;67429;51.596;-3.264;2023-03-01T04:32:25;2;2;
78063;PMS5003;67429;51.596;-3.264;2023-03-01T04:34:51;2;2;
78063;PMS5003;67429;51.596;-3.264;2023-03-01T04:37:16;2;2;
78063;PMS5003;67429;51.596;-3.264;2023-03-01T04:39:42;4;4;
78063;PMS5003;67429;51.596;-3.264;2023-03-01T04:42:08;6;6;
78063;PMS5003;67429;51.596;-3.264;2023-03-01T04:44:34;6;4;
78063;PMS5003;67429;51.596;-3.264;2023-03-01T04:46:59;7;7;
78063;PMS5003;67429;51.596;-3.264;2023-03-01T04:49:25;7;7;
78063;PMS5003;67429;51.596;-3.264;2023-03-01T04:51:51;8;8;
78063;PMS5003;67429;51.596;-3.264;2023-03-01T04:54:17;8;8;
78063;PMS5003;67429;51.596;-3.264;2023-03-01T04:56:43;11;9;
78063;PMS5003;67429;51.596;-3.264;2023-03-01T04:59:08;13;12;
78063;PMS5003;67429;51.596;-3.264;2023-03-01T05:01:34;11;9;
78063;PMS5003;67429;51.596;-3.264;2023-03-01T05:04:00;11;11;
78063;PMS5003;67429;51.596;-3.264;2023-03-01T05:06:25;12;11;
78063;PMS5003;67429;51.596;-3.264;2023-03-01T05:08:50;12;12;
78063;PMS5003;67429;51.596;-3.264;2023-03-01T05:11:16;8;8;
78063;PMS5003;67429;51.596;-3.264;2023-03-01T05:13:41;8;8;
78063;PMS5003;67429;51.596;-3.264;2023-03-01T05:16:08;11;11;
78063;PMS5003;67429;51.596;-3.264;2023-03-01T05:18:33;11;11;
78063;PMS5003;67429;51.596;-3.264;2023-03-01T05:21:01;15;10;
78063;PMS5003;67429;51.596;-3.264;2023-03-01T05:23:23;11;9;
78063;PMS5003;67429;51.596;-3.264;2023-03-01T05:25:49;8;8;
78063;PMS5003;67429;51.596;-3.264;2023-03-01T05:28:15;8;8;
78063;PMS5003;67429;51.596;-3.264;2023-03-01T05:30:41;9;9;
78063;PMS5003;67429;51.596;-3.264;2023-03-01T05:33:07;8;7;
78063;PMS5003;67429;51.596;-3.264;2023-03-01T05:35:32;11;9;
78063;PMS5003;67429;51.596;-3.264;2023-03-01T05:37:58;7;6;
78063;PMS5003;67429;51.596;-3.264;2023-03-01T05:40:24;6;4;
78063;PMS5003;67429;51.596;-3.264;2023-03-01T05:42:52;6;5;
78063;PMS5003;67429;51.596;-3.264;2023-03-01T05:45:16;7;7;
78063;PMS5003;67429;51.596;-3.264;2023-03-01T05:47:42;7;7;
78063;PMS5003;67429;51.596;-3.264;2023-03-01T05:50:08;7;7;
78063;PMS5003;67429;51.596;-3.264;2023-03-01T05:52:33;7;7;
78063;PMS5003;67429;51.596;-3.264;2023-03-01T05:54:59;6;6;
78063;PMS5003;67429;51.596;-3.264;2023-03-01T05:57:24;9;9;
78063;PMS5003;67429;51.596;-3.264;2023-03-01T05:59:50;7;7;
78063;PMS5003;67429;51.596;-3.264;2023-03-01T06:02:16;7;7;
78063;PMS5003;67429;51.596;-3.264;2023-03-01T06:04:42;8;8;
78063;PMS5003;67429;51.596;-3.264;2023-03-01T06:07:08;9;8;
78063;PMS5003;67429;51.596;-3.264;2023-03-01T06:09:33;8;7;
78063;PMS5003;67429;51.596;-3.264;2023-03-01T06:11:59;7;7;
78063;PMS5003;67429;51.596;-3.264;2023-03-01T06:14:24;7;7;
78063;PMS5003;67429;51.596;-3.264;2023-03-01T06:16:50;6;6;
78063;PMS5003;67429;51.596;-3.264;2023-03-01T06:19:16;8;7;
78063;PMS5003;67429;51.596;-3.264;2023-03-01T06:21:42;7;6;
78063;PMS5003;67429;51.596;-3.264;2023-03-01T06:24:08;10;8;
78063;PMS5003;67429;51.596;-3.264;2023-03-01T06:26:33;7;7;
78063;PMS5003;67429;51.596;-3.264;2023-03-01T06:28:59;7;6;
78063;PMS5003;67429;51.596;-3.264;2023-03-01T06:31:25;6;5;
78063;PMS5003;67429;51.596;-3.264;2023-03-01T06:33:51;6;6;
78063;PMS5003;67429;51.596;-3.264;2023-03-01T06:36:16;6;6;
78063;PMS5003;67429;51.596;-3.264;2023-03-01T06:38:42;7;7;
78063;PMS5003;67429;51.596;-3.264;2023-03-01T06:41:08;8;8;
78063;PMS5003;67429;51.596;-3.264;2023-03-01T06:43:34;8;7;
78063;PMS5003;67429;51.596;-3.264;2023-03-01T06:46:00;8;8;
78063;PMS5003;67429;51.596;-3.264;2023-03-01T06:48:25;7;7;
78063;PMS5003;67429;51.596;-3.264;2023-03-01T06:50:51;7;7;
78063;PMS5003;67429;51.596;-3.264;2023-03-01T06:53:17;7;7;
78063;PMS5003;67429;51.596;-3.264;2023-03-01T06:55:43;7;7;
78063;PMS5003;67429;51.596;-3.264;2023-03-01T06:58:09;5;5;
78063;PMS5003;67429;51.596;-3.264;2023-03-01T07:00:34;7;6;
78063;PMS5003;67429;51.596;-3.264;2023-03-01T07:03:00;5;5;
78063;PMS5003;67429;51.596;-3.264;2023-03-01T07:05:26;4;4;
78063;PMS5003;67429;51.596;-3.264;2023-03-01T07:07:52;4;3;
78063;PMS5003;67429;51.596;-3.264;2023-03-01T07:10:17;4;3;
78063;PMS5003;67429;51.596;-3.264;2023-03-01T07:12:43;4;3;
78063;PMS5003;67429;51.596;-3.264;2023-03-01T07:15:09;4;4;
78063;PMS5003;67429;51.596;-3.264;2023-03-01T07:17:35;4;4;
78063;PMS5003;67429;51.596;-3.264;2023-03-01T07:20:00;3;3;
78063;PMS5003;67429;51.596;-3.264;2023-03-01T07:22:26;4;3;
78063;PMS5003;67429;51.596;-3.264;2023-03-01T07:24:52;6;6;
78063;PMS5003;67429;51.596;-3.264;2023-03-01T07:27:18;3;3;
78063;PMS5003;67429;51.596;-3.264;2023-03-01T07:29:44;3;3;
78063;PMS5003;67429;51.596;-3.264;2023-03-01T07:32:09;3;3;
78063;PMS5003;67429;51.596;-3.264;2023-03-01T07:34:35;3;2;
78063;PMS5003;67429;51.596;-3.264;2023-03-01T07:37:01;2;2;
78063;PMS5003;67429;51.596;-3.264;2023-03-01T07:39:27;2;2;
78063;PMS5003;67429;51.596;-3.264;2023-03-01T07:41:53;2;2;
78063;PMS5003;67429;51.596;-3.264;2023-03-01T07:44:18;3;2;
78063;PMS5003;67429;51.596;-3.264;2023-03-01T07:46:44;2;2;
78063;PMS5003;67429;51.596;-3.264;2023-03-01T07:49:10;3;2;
78063;PMS5003;67429;51.596;-3.264;2023-03-01T07:51:36;3;3;
78063;PMS5003;67429;51.596;-3.264;2023-03-01T07:54:01;2;2;
78063;PMS5003;67429;51.596;-3.264;2023-03-01T07:56:27;1;1;
78063;PMS5003;67429;51.596;-3.264;2023-03-01T07:58:53;2;2;
78063;PMS5003;67429;51.596;-3.264;2023-03-01T08:01:19;3;2;
78063;PMS5003;67429;51.596;-3.264;2023-03-01T08:03:45;1;1;
78063;PMS5003;67429;51.596;-3.264;2023-03-01T08:06:11;1;1;
78063;PMS5003;67429;51.596;-3.264;2023-03-01T08:08:36;1;1;
78063;PMS5003;67429;51.596;-3.264;2023-03-01T08:11:03;2;1;
78063;PMS5003;67429;51.596;-3.264;2023-03-01T08:13:28;1;1;
78063;PMS5003;67429;51.596;-3.264;2023-03-01T08:15:54;1;1;
78063;PMS5003;67429;51.596;-3.264;2023-03-01T08:18:20;1;1;
78063;PMS5003;67429;51.596;-3.264;2023-03-01T08:20:45;1;1;
78063;PMS5003;67429;51.596;-3.264;2023-03-01T08:23:11;1;1;
78063;PMS5003;67429;51.596;-3.264;2023-03-01T08:25:36;1;0;
78063;PMS5003;67429;51.596;-3.264;2023-03-01T08:28:02;0;0;
78063;PMS5003;67429;51.596;-3.264;2023-03-01T08:30:28;2;2;
78063;PMS5003;67429;51.596;-3.264;2023-03-01T08:32:54;2;2;
78063;PMS5003;67429;51.596;-3.264;2023-03-01T08:35:20;3;3;
78063;PMS5003;67429;51.596;-3.264;2023-03-01T08:37:46;4;4;
78063;PMS5003;67429;51.596;-3.264;2023-03-01T08:40:11;2;2;
78063;PMS5003;67429;51.596;-3.264;2023-03-01T08:42:37;3;3;
78063;PMS5003;67429;51.596;-3.264;2023-03-01T08:45:03;8;7;
78063;PMS5003;67429;51.596;-3.264;2023-03-01T08:47:29;3;3;
78063;PMS5003;67429;51.596;-3.264;2023-03-01T08:49:54;4;4;
78063;PMS5003;67429;51.596;-3.264;2023-03-01T08:52:20;1;1;
78063;PMS5003;67429;51.596;-3.264;2023-03-01T08:54:47;3;3;
78063;PMS5003;67429;51.596;-3.264;2023-03-01T08:57:12;2;2;
78063;PMS5003;67429;51.596;-3.264;2023-03-01T08:59:38;2;2;
78063;PMS5003;67429;51.596;-3.264;2023-03-01T09:02:03;2;2;
78063;PMS5003;67429;51.596;-3.264;2023-03-01T09:04:29;3;3;
78063;PMS5003;67429;51.596;-3.264;2023-03-01T09:06:55;3;3;
78063;PMS5003;67429;51.596;-3.264;2023-03-01T09:09:20;4;4;
78063;PMS5003;67429;51.596;-3.264;2023-03-01T09:11:46;2;2;
78063;PMS5003;67429;51.596;-3.264;2023-03-01T09:14:12;3;3;
78063;PMS5003;67429;51.596;-3.264;2023-03-01T09:16:38;3;3;
78063;PMS5003;67429;51.596;-3.264;2023-03-01T09:19:03;3;3;
78063;PMS5003;67429;51.596;-3.264;2023-03-01T09:21:29;6;4;
78063;PMS5003;67429;51.596;-3.264;2023-03-01T09:23:55;3;3;
78063;PMS5003;67429;51.596;-3.264;2023-03-01T09:26:21;4;4;
78063;PMS5003;67429;51.596;-3.264;2023-03-01T09:28:46;4;4;
78063;PMS5003;67429;51.596;-3.264;2023-03-01T09:31:13;6;6;
78063;PMS5003;67429;51.596;-3.264;2023-03-01T09:33:38;3;3;
78063;PMS5003;67429;51.596;-3.264;2023-03-01T09:36:05;4;4;
78063;PMS5003;67429;51.596;-3.264;2023-03-01T09:38:30;4;3;
78063;PMS5003;67429;51.596;-3.264;2023-03-01T09:40:55;2;2;
78063;PMS5003;67429;51.596;-3.264;2023-03-01T09:43:23;3;3;
78063;PMS5003;67429;51.596;-3.264;2023-03-01T09:45:47;2;2;
78063;PMS5003;67429;51.596;-3.264;2023-03-01T09:48:14;3;2;
78063;PMS5003;67429;51.596;-3.264;2023-03-01T09:50:39;2;2;
78063;PMS5003;67429;51.596;-3.264;2023-03-01T09:53:05;3;2;
78063;PMS5003;67429;51.596;-3.264;2023-03-01T09:55:31;4;3;
78063;PMS5003;67429;51.596;-3.264;2023-03-01T09:57:56;1;1;
78063;PMS5003;67429;51.596;-3.264;2023-03-01T10:00:25;4;3;
78063;PMS5003;67429;51.596;-3.264;2023-03-01T10:02:48;4;4;
78063;PMS5003;67429;51.596;-3.264;2023-03-01T10:05:17;3;2;
78063;PMS5003;67429;51.596;-3.264;2023-03-01T10:07:40;3;2;
78063;PMS5003;67429;51.596;-3.264;2023-03-01T10:10:05;2;2;
78063;PMS5003;67429;51.596;-3.264;2023-03-01T10:12:33;3;3;
78063;PMS5003;67429;51.596;-3.264;2023-03-01T10:14:57;2;1;
78063;PMS5003;67429;51.596;-3.264;2023-03-01T10:17:25;3;3;
78063;PMS5003;67429;51.596;-3.264;2023-03-01T10:19:48;2;2;
78063;PMS5003;67429;51.596;-3.264;2023-03-01T10:22:13;2;2;
78063;PMS5003;67429;51.596;-3.264;2023-03-01T10:24:38;2;2;
78063;PMS5003;67429;51.596;-3.264;2023-03-01T10:27:05;3;2;
78063;PMS5003;67429;51.596;-3.264;2023-03-01T10:29:30;3;3;
78063;PMS5003;67429;51.596;-3.264;2023-03-01T10:31:55;2;2;
78063;PMS5003;67429;51.596;-3.264;2023-03-01T10:34:22;3;2;
78063;PMS5003;67429;51.596;-3.264;2023-03-01T10:36:48;2;2;
78063;PMS5003;67429;51.596;-3.264;2023-03-01T10:39:14;2;2;
78063;PMS5003;67429;51.596;-3.264;2023-03-01T10:41:40;2;2;
78063;PMS5003;67429;51.596;-3.264;2023-03-01T10:44:04;2;1;
78063;PMS5003;67429;51.596;-3.264;2023-03-01T10:46:31;1;1;
78063;PMS5003;67429;51.596;-3.264;2023-03-01T10:51:21;1;1;
78063;PMS5003;67429;51.596;-3.264;2023-03-01T10:53:48;1;1;
78063;PMS5003;67429;51.596;-3.264;2023-03-01T10:56:14;2;2;
78063;PMS5003;67429;51.596;-3.264;2023-03-01T10:58:40;2;2;
78063;PMS5003;67429;51.596;-3.264;2023-03-01T11:01:05;2;2;
78063;PMS5003;67429;51.596;-3.264;2023-03-01T11:03:31;3;3;
78063;PMS5003;67429;51.596;-3.264;2023-03-01T11:06:00;2;2;
78063;PMS5003;67429;51.596;-3.264;2023-03-01T11:08:30;3;2;
78063;PMS5003;67429;51.596;-3.264;2023-03-01T11:10:48;3;3;
78063;PMS5003;67429;51.596;-3.264;2023-03-01T11:13:14;2;2;
78063;PMS5003;67429;51.596;-3.264;2023-03-01T11:15:39;2;2;
78063;PMS5003;67429;51.596;-3.264;2023-03-01T11:18:05;2;2;
78063;PMS5003;67429;51.596;-3.264;2023-03-01T11:20:31;3;3;
78063;PMS5003;67429;51.596;-3.264;2023-03-01T11:22:57;2;2;
78063;PMS5003;67429;51.596;-3.264;2023-03-01T11:25:24;2;2;
78063;PMS5003;67429;51.596;-3.264;2023-03-01T11:27:48;4;3;
78063;PMS5003;67429;51.596;-3.264;2023-03-01T11:30:16;3;3;
78063;PMS5003;67429;51.596;-3.264;2023-03-01T11:32:40;3;3;
78063;PMS5003;67429;51.596;-3.264;2023-03-01T11:35:08;3;3;
78063;PMS5003;67429;51.596;-3.264;2023-03-01T11:37:33;4;3;
78063;PMS5003;67429;51.596;-3.264;2023-03-01T11:39:59;4;4;
78063;PMS5003;67429;51.596;-3.264;2023-03-01T11:42:25;7;4;
78063;PMS5003;67429;51.596;-3.264;2023-03-01T11:44:49;7;6;
78063;PMS5003;67429;51.596;-3.264;2023-03-01T11:47:17;6;4;
78063;PMS5003;67429;51.596;-3.264;2023-03-01T11:49:44;6;6;
78063;PMS5003;67429;51.596;-3.264;2023-03-01T11:52:07;6;4;
78063;PMS5003;67429;51.596;-3.264;2023-03-01T11:54:35;4;4;
78063;PMS5003;67429;51.596;-3.264;2023-03-01T11:56:57;5;4;
78063;PMS5003;67429;51.596;-3.264;2023-03-01T11:59:32;4;4;
78063;PMS5003;67429;51.596;-3.264;2023-03-01T12:01:51;4;4;
78063;PMS5003;67429;51.596;-3.264;2023-03-01T12:04:20;7;5;
78063;PMS5003;67429;51.596;-3.264;2023-03-01T12:06:43;7;5;
78063;PMS5003;67429;51.596;-3.264;2023-03-01T12:09:11;3;3;
78063;PMS5003;67429;51.596;-3.264;2023-03-01T12:11:35;2;2;
78063;PMS5003;67429;51.596;-3.264;2023-03-01T12:14:01;6;6;
78063;PMS5003;67429;51.596;-3.264;2023-03-01T12:16:26;4;4;
78063;PMS5003;67429;51.596;-3.264;2023-03-01T12:18:53;4;4;
78063;PMS5003;67429;51.596;-3.264;2023-03-01T12:21:18;3;3;
78063;PMS5003;67429;51.596;-3.264;2023-03-01T12:23:46;6;6;
78063;PMS5003;67429;51.596;-3.264;2023-03-01T12:26:07;5;5;
78063;PMS5003;67429;51.596;-3.264;2023-03-01T12:28:41;5;5;
78063;PMS5003;67429;51.596;-3.264;2023-03-01T12:31:02;3;3;
78063;PMS5003;67429;51.596;-3.264;2023-03-01T12:33:25;4;4;
78063;PMS5003;67429;51.596;-3.264;2023-03-01T12:35:52;6;6;
78063;PMS5003;67429;51.596;-3.264;2023-03-01T12:38:19;4;4;
78063;PMS5003;67429;51.596;-3.264;2023-03-01T12:40:53;7;6;
78063;PMS5003;67429;51.596;-3.264;2023-03-01T12:43:09;8;7;
78063;PMS5003;67429;51.596;-3.264;2023-03-01T12:45:35;4;4;
78063;PMS5003;67429;51.596;-3.264;2023-03-01T12:48:01;4;4;
78063;PMS5003;67429;51.596;-3.264;2023-03-01T12:50:24;6;6;
78063;PMS5003;67429;51.596;-3.264;2023-03-01T12:52:50;6;6;
78063;PMS5003;67429;51.596;-3.264;2023-03-01T12:55:18;4;4;
78063;PMS5003;67429;51.596;-3.264;2023-03-01T12:57:41;7;7;
78063;PMS5003;67429;51.596;-3.264;2023-03-01T13:00:10;5;4;
78063;PMS5003;67429;51.596;-3.264;2023-03-01T13:02:33;10;8;
78063;PMS5003;67429;51.596;-3.264;2023-03-01T13:05:01;4;4;
78063;PMS5003;67429;51.596;-3.264;2023-03-01T13:07:26;5;5;
78063;PMS5003;67429;51.596;-3.264;2023-03-01T13:09:50;5;5;
78063;PMS5003;67429;51.596;-3.264;2023-03-01T13:14:44;4;4;
78063;PMS5003;67429;51.596;-3.264;2023-03-01T13:17:07;3;3;
78063;PMS5003;67429;51.596;-3.264;2023-03-01T13:19:32;3;3;
78063;PMS5003;67429;51.596;-3.264;2023-03-01T13:21:58;7;4;
78063;PMS5003;67429;51.596;-3.264;2023-03-01T13:24:24;4;4;
78063;PMS5003;67429;51.596;-3.264;2023-03-01T13:34:06;10;10;
78063;PMS5003;67429;51.596;-3.264;2023-03-01T13:38:59;3;3;
78063;PMS5003;67429;51.596;-3.264;2023-03-01T13:43:50;5;5;
78063;PMS5003;67429;51.596;-3.264;2023-03-01T13:46:16;5;5;
78063;PMS5003;67429;51.596;-3.264;2023-03-01T13:48:41;4;4;
78063;PMS5003;67429;51.596;-3.264;2023-03-01T13:51:07;6;6;
78063;PMS5003;67429;51.596;-3.264;2023-03-01T13:53:33;5;5;
78063;PMS5003;67429;51.596;-3.264;2023-03-01T13:56:00;6;5;
78063;PMS5003;67429;51.596;-3.264;2023-03-01T13:58:25;10;9;
78063;PMS5003;67429;51.596;-3.264;2023-03-01T14:03:16;6;6;
78063;PMS5003;67429;51.596;-3.264;2023-03-01T14:05:42;4;4;
78063;PMS5003;67429;51.596;-3.264;2023-03-01T14:10:36;4;4;
78063;PMS5003;67429;51.596;-3.264;2023-03-01T14:13:00;5;5;
78063;PMS5003;67429;51.596;-3.264;2023-03-01T14:15:25;4;4;
78063;PMS5003;67429;51.596;-3.264;2023-03-01T14:17:52;7;7;
78063;PMS5003;67429;51.596;-3.264;2023-03-01T14:20:17;5;5;
78063;PMS5003;67429;51.596;-3.264;2023-03-01T14:22:41;8;7;
78063;PMS5003;67429;51.596;-3.264;2023-03-01T14:27:33;7;7;
78063;PMS5003;67429;51.596;-3.264;2023-03-01T14:29:59;7;6;
78063;PMS5003;67429;51.596;-3.264;2023-03-01T14:32:24;7;7;
78063;PMS5003;67429;51.596;-3.264;2023-03-01T14:34:50;7;7;
78063;PMS5003;67429;51.596;-3.264;2023-03-01T14:37:19;8;8;
78063;PMS5003;67429;51.596;-3.264;2023-03-01T14:39:41;8;7;
78063;PMS5003;67429;51.596;-3.264;2023-03-01T14:42:07;8;8;
78063;PMS5003;67429;51.596;-3.264;2023-03-01T14:44:33;8;8;
78063;PMS5003;67429;51.596;-3.264;2023-03-01T14:46:59;8;8;
78063;PMS5003;67429;51.596;-3.264;2023-03-01T14:49:25;5;4;
78063;PMS5003;67429;51.596;-3.264;2023-03-01T14:51:51;8;6;
78063;PMS5003;67429;51.596;-3.264;2023-03-01T14:54:19;7;7;
78063;PMS5003;67429;51.596;-3.264;2023-03-01T14:56:43;10;7;
78063;PMS5003;67429;51.596;-3.264;2023-03-01T14:59:07;8;6;
78063;PMS5003;67429;51.596;-3.264;2023-03-01T15:01:32;6;6;
78063;PMS5003;67429;51.596;-3.264;2023-03-01T15:03:58;6;6;
78063;PMS5003;67429;51.596;-3.264;2023-03-01T15:06:24;8;6;
78063;PMS5003;67429;51.596;-3.264;2023-03-01T15:08:50;6;6;
78063;PMS5003;67429;51.596;-3.264;2023-03-01T15:11:17;8;8;
78063;PMS5003;67429;51.596;-3.264;2023-03-01T15:13:41;8;8;
78063;PMS5003;67429;51.596;-3.264;2023-03-01T15:16:07;6;5;
78063;PMS5003;67429;51.596;-3.264;2023-03-01T15:18:33;5;5;
78063;PMS5003;67429;51.596;-3.264;2023-03-01T15:23:25;6;6;
78063;PMS5003;67429;51.596;-3.264;2023-03-01T15:25:50;6;6;
78063;PMS5003;67429;51.596;-3.264;2023-03-01T15:28:17;5;5;
78063;PMS5003;67429;51.596;-3.264;2023-03-01T15:30:41;5;5;
78063;PMS5003;67429;51.596;-3.264;2023-03-01T15:35:34;4;4;
78063;PMS5003;67429;51.596;-3.264;2023-03-01T15:37:58;8;8;
78063;PMS5003;67429;51.596;-3.264;2023-03-01T15:40:25;8;8;
78063;PMS5003;67429;51.596;-3.264;2023-03-01T15:42:50;7;7;
78063;PMS5003;67429;51.596;-3.264;2023-03-01T15:45:21;9;8;
78063;PMS5003;67429;51.596;-3.264;2023-03-01T15:47:41;8;8;
78063;PMS5003;67429;51.596;-3.264;2023-03-01T15:50:11;9;9;
78063;PMS5003;67429;51.596;-3.264;2023-03-01T15:52:34;8;8;
78063;PMS5003;67429;51.596;-3.264;2023-03-01T15:54:59;11;11;
78063;PMS5003;67429;51.596;-3.264;2023-03-01T15:57:24;5;5;
78063;PMS5003;67429;51.596;-3.264;2023-03-01T15:59:49;8;8;
78063;PMS5003;67429;51.596;-3.264;2023-03-01T16:02:15;7;7;
78063;PMS5003;67429;51.596;-3.264;2023-03-01T16:04:41;7;7;
78063;PMS5003;67429;51.596;-3.264;2023-03-01T16:07:06;8;8;
78063;PMS5003;67429;51.596;-3.264;2023-03-01T16:09:32;8;7;
78063;PMS5003;67429;51.596;-3.264;2023-03-01T16:11:57;28;28;
78063;PMS5003;67429;51.596;-3.264;2023-03-01T16:14:22;20;16;
78063;PMS5003;67429;51.596;-3.264;2023-03-01T16:16:48;10;10;
78063;PMS5003;67429;51.596;-3.264;2023-03-01T16:19:13;16;14;
78063;PMS5003;67429;51.596;-3.264;2023-03-01T16:21:38;58;49;
78063;PMS5003;67429;51.596;-3.264;2023-03-01T16:24:04;65;64;
78063;PMS5003;67429;51.596;-3.264;2023-03-01T16:26:29;22;22;
78063;PMS5003;67429;51.596;-3.264;2023-03-01T16:28:55;21;18;
78063;PMS5003;67429;51.596;-3.264;2023-03-01T16:31:20;12;12;
78063;PMS5003;67429;51.596;-3.264;2023-03-01T16:33:45;24;21;
78063;PMS5003;67429;51.596;-3.264;2023-03-01T16:36:11;8;8;
78063;PMS5003;67429;51.596;-3.264;2023-03-01T16:38:36;16;15;
78063;PMS5003;67429;51.596;-3.264;2023-03-01T16:41:02;9;9;
78063;PMS5003;67429;51.596;-3.264;2023-03-01T16:43:27;26;25;
78063;PMS5003;67429;51.596;-3.264;2023-03-01T16:45:52;11;9;